createdAt,value
2023-01-13T00:01:34.670Z,83.11
2023-01-13T00:03:48.089Z,83.58
2023-01-13T00:06:00.868Z,83.54
2023-01-13T00:08:13.647Z,83.64
2023-01-13T00:10:26.295Z,84.03
2023-01-13T00:12:40.803Z,83.95
2023-01-13T00:14:53.502Z,83.99
2023-01-13T00:17:06.175Z,84.11
2023-01-13T00:19:18.817Z,84.28
2023-01-13T00:21:31.579Z,84.30
2023-01-13T00:23:44.945Z,84.08
2023-01-13T00:25:59.107Z,84.25
2023-01-13T00:28:11.714Z,84.23
2023-01-13T00:30:24.367Z,84.17
2023-01-13T00:32:36.990Z,84.25
2023-01-13T00:34:49.641Z,83.82
2023-01-13T00:37:02.431Z,84.21
2023-01-13T00:39:15.357Z,83.96
2023-01-13T00:41:29.227Z,84.24
2023-01-13T00:43:42.454Z,83.95
2023-01-13T00:45:55.498Z,83.85
2023-01-13T00:48:08.417Z,84.01
2023-01-13T00:50:21.020Z,84.25
2023-01-13T00:52:33.712Z,84.27
2023-01-13T00:54:46.318Z,84.63
2023-01-13T00:56:58.890Z,84.68
2023-01-13T00:59:13.613Z,85.09
2023-01-13T01:01:26.417Z,85.43
2023-01-13T01:03:39.464Z,85.77
2023-01-13T01:05:52.088Z,85.77
2023-01-13T01:08:05.243Z,86.44
2023-01-13T01:10:17.968Z,86.30
2023-01-13T01:12:30.814Z,86.64
2023-01-13T01:14:43.557Z,86.78
2023-01-13T01:16:56.159Z,86.71
2023-01-13T01:19:10.188Z,87.26
2023-01-13T01:21:24.916Z,86.87
2023-01-13T01:23:38.667Z,87.40
2023-01-13T01:25:51.386Z,87.42
2023-01-13T01:28:04.030Z,87.25
2023-01-13T01:30:16.838Z,87.41
2023-01-13T01:32:29.499Z,87.44
2023-01-13T01:34:42.167Z,87.25
2023-01-13T01:36:54.797Z,87.25
2023-01-13T01:39:07.500Z,87.17
2023-01-13T01:41:26.250Z,87.34
2023-01-13T01:44:04.552Z,87.20
2023-01-13T01:46:17.421Z,87.03
2023-01-13T01:48:40.186Z,87.24
2023-01-13T01:50:53.055Z,87.09
2023-01-13T01:53:12.777Z,86.79
2023-01-13T01:55:34.884Z,86.69
2023-01-13T01:57:54.739Z,86.47
2023-01-13T02:00:08.304Z,86.30
2023-01-13T02:02:22.303Z,86.22
2023-01-13T02:04:40.906Z,86.31
2023-01-13T02:06:53.855Z,86.05
2023-01-13T02:09:07.166Z,85.83
2023-01-13T02:11:50.682Z,85.51
2023-01-13T02:14:03.374Z,85.55
2023-01-13T02:16:23.363Z,85.15
2023-01-13T02:18:47.603Z,84.87
2023-01-13T02:21:07.719Z,84.71
2023-01-13T02:23:57.552Z,84.44
2023-01-13T02:26:21.518Z,84.50
2023-01-13T02:29:09.703Z,84.22
2023-01-13T02:31:41.088Z,84.15
2023-01-13T02:34:01.403Z,83.86
2023-01-13T02:36:29.327Z,83.56
2023-01-13T02:38:55.836Z,83.58
2023-01-13T02:41:37.501Z,83.73
2023-01-13T02:44:08.216Z,83.61
2023-01-13T02:46:27.709Z,83.39
2023-01-13T02:48:41.975Z,83.07
2023-01-13T02:51:00.107Z,83.25
2023-01-13T02:53:22.913Z,83.31
2023-01-13T02:55:39.349Z,83.32
2023-01-13T02:57:53.224Z,83.09
2023-01-13T03:00:11.424Z,82.96
2023-01-13T03:02:25.760Z,82.67
2023-01-13T03:04:48.836Z,82.80
2023-01-13T03:07:22.942Z,82.65
2023-01-13T03:09:43.600Z,82.89
2023-01-13T03:12:09.169Z,83.56
2023-01-13T03:14:38.920Z,84.25
2023-01-13T03:17:27.213Z,84.64
2023-01-13T03:20:02.509Z,85.18
2023-01-13T03:22:26.772Z,85.99
2023-01-13T03:24:50.037Z,86.35
2023-01-13T03:27:15.221Z,86.78
2023-01-13T03:29:54.803Z,87.10
2023-01-13T03:32:23.437Z,87.55
2023-01-13T03:34:49.095Z,87.74
2023-01-13T03:37:05.669Z,87.77
2023-01-13T03:39:24.921Z,88.00
2023-01-13T03:41:57.262Z,87.96
2023-01-13T03:44:22.862Z,87.91
2023-01-13T03:47:04.071Z,87.82
2023-01-13T03:49:22.321Z,87.83
2023-01-13T03:51:39.110Z,87.71
2023-01-13T03:53:58.238Z,87.58
2023-01-13T03:56:19.723Z,87.51
2023-01-13T03:58:40.481Z,87.53
2023-01-13T04:01:01.355Z,87.26
2023-01-13T04:03:23.201Z,87.16
2023-01-13T04:05:42.033Z,87.03
2023-01-13T04:08:16.639Z,86.88
2023-01-13T04:10:41.397Z,86.70
2023-01-13T04:13:01.292Z,86.70
2023-01-13T04:15:14.528Z,86.48
2023-01-13T04:17:27.064Z,86.41
2023-01-13T04:19:39.672Z,86.22
2023-01-13T04:21:52.436Z,86.14
2023-01-13T04:24:05.158Z,85.91
2023-01-13T04:26:19.671Z,85.92
2023-01-13T04:28:33.514Z,85.83
2023-01-13T04:30:46.905Z,85.69
2023-01-13T04:32:59.657Z,85.65
2023-01-13T04:35:12.332Z,85.41
2023-01-13T04:37:24.883Z,85.56
2023-01-13T04:39:37.639Z,85.32
2023-01-13T04:41:59.198Z,85.09
2023-01-13T04:44:11.723Z,85.01
2023-01-13T04:46:24.296Z,85.05
2023-01-13T04:48:37.006Z,85.02
2023-01-13T04:50:49.555Z,84.70
2023-01-13T04:53:02.301Z,84.72
2023-01-13T04:55:16.064Z,84.73
2023-01-13T04:57:28.701Z,84.46
2023-01-13T04:59:42.049Z,84.52
2023-01-13T05:01:54.685Z,84.39
2023-01-13T05:04:08.425Z,84.13
2023-01-13T05:06:21.044Z,84.05
2023-01-13T05:08:33.591Z,83.92
2023-01-13T05:10:46.118Z,84.01
2023-01-13T05:13:17.316Z,83.91
2023-01-13T05:15:48.213Z,83.78
2023-01-13T05:18:01.582Z,83.79
2023-01-13T05:20:14.523Z,83.64
2023-01-13T05:22:45.779Z,83.45
2023-01-13T05:25:17.232Z,83.58
2023-01-13T05:27:30.838Z,83.65
2023-01-13T05:29:43.425Z,83.53
2023-01-13T05:31:55.951Z,83.38
2023-01-13T05:34:08.528Z,83.26
2023-01-13T05:36:21.112Z,83.15
2023-01-13T05:38:33.662Z,83.23
2023-01-13T05:41:05.115Z,82.92
2023-01-13T05:43:19.815Z,83.10
2023-01-13T05:45:32.462Z,82.79
2023-01-13T05:47:45.159Z,82.78
2023-01-13T05:49:57.777Z,82.67
2023-01-13T05:52:10.319Z,82.45
2023-01-13T05:54:22.893Z,82.64
2023-01-13T05:56:35.468Z,82.54
2023-01-13T05:58:47.991Z,82.50
2023-01-13T06:01:07.164Z,82.71
2023-01-13T06:03:20.219Z,82.53
2023-01-13T06:05:33.696Z,82.34
2023-01-13T06:07:46.195Z,82.56
2023-01-13T06:09:58.790Z,82.65
2023-01-13T06:12:12.564Z,82.29
2023-01-13T06:14:25.196Z,82.24
2023-01-13T06:16:38.585Z,82.15
2023-01-13T06:18:51.155Z,82.10
2023-01-13T06:21:04.846Z,82.09
2023-01-13T06:23:17.430Z,82.17
2023-01-13T06:25:49.695Z,81.98
2023-01-13T06:28:03.006Z,81.96
2023-01-13T06:30:15.758Z,82.07
2023-01-13T06:32:35.463Z,81.73
2023-01-13T06:34:53.661Z,81.56
2023-01-13T06:37:06.622Z,81.44
2023-01-13T06:39:24.375Z,81.45
2023-01-13T06:41:56.129Z,81.41
2023-01-13T06:44:09.028Z,81.44
2023-01-13T06:46:21.590Z,81.31
2023-01-13T06:48:35.386Z,81.58
2023-01-13T06:50:48.163Z,81.34
2023-01-13T06:53:00.656Z,81.57
2023-01-13T06:55:13.565Z,81.34
2023-01-13T06:57:26.194Z,81.25
2023-01-13T06:59:39.107Z,81.20
2023-01-13T07:01:52.039Z,81.13
2023-01-13T07:04:04.848Z,81.04
2023-01-13T07:06:17.413Z,81.09
2023-01-13T07:08:29.995Z,80.88
2023-01-13T07:10:42.587Z,81.03
2023-01-13T07:13:14.059Z,80.89
2023-01-13T07:15:27.008Z,81.16
2023-01-13T07:17:39.614Z,80.77
2023-01-13T07:19:53.065Z,80.80
2023-01-13T07:22:05.612Z,80.82
2023-01-13T07:24:19.098Z,80.76
2023-01-13T07:26:31.675Z,80.85
2023-01-13T07:28:44.263Z,80.88
2023-01-13T07:30:57.559Z,80.50
2023-01-13T07:33:10.090Z,80.70
2023-01-13T07:35:23.445Z,80.65
2023-01-13T07:37:38.065Z,80.44
2023-01-13T07:39:50.686Z,80.57
2023-01-13T07:42:22.271Z,80.64
2023-01-13T07:44:34.770Z,80.68
2023-01-13T07:46:47.332Z,80.60
2023-01-13T07:48:59.956Z,80.83
2023-01-13T07:51:12.670Z,80.73
2023-01-13T07:53:25.948Z,80.57
2023-01-13T07:55:43.096Z,80.67
2023-01-13T07:57:55.604Z,80.49
2023-01-13T08:00:11.009Z,80.60
2023-01-13T08:02:25.494Z,80.54
2023-01-13T08:04:38.642Z,80.37
2023-01-13T08:06:51.151Z,80.55
2023-01-13T08:09:04.123Z,80.54
2023-01-13T08:11:17.285Z,80.45
2023-01-13T08:13:30.152Z,80.47
2023-01-13T08:15:43.810Z,80.37
2023-01-13T08:17:56.370Z,80.02
2023-01-13T08:20:09.733Z,80.44
2023-01-13T08:22:22.827Z,80.17
2023-01-13T08:24:35.340Z,80.16
2023-01-13T08:26:47.897Z,79.86
2023-01-13T08:29:00.454Z,79.67
2023-01-13T08:31:16.260Z,79.59
2023-01-13T08:33:29.813Z,79.67
2023-01-13T08:35:42.363Z,79.65
2023-01-13T08:37:54.910Z,79.68
2023-01-13T08:40:09.881Z,79.44
2023-01-13T08:42:22.444Z,79.75
2023-01-13T08:44:35.066Z,79.49
2023-01-13T08:46:47.561Z,79.62
2023-01-13T08:49:00.123Z,79.51
2023-01-13T08:51:12.991Z,79.56
2023-01-13T08:53:25.570Z,79.58
2023-01-13T08:55:40.060Z,79.52
2023-01-13T08:57:54.464Z,79.67
2023-01-13T09:00:09.774Z,79.82
2023-01-13T09:02:24.144Z,79.79
2023-01-13T09:04:36.837Z,79.73
2023-01-13T09:06:50.554Z,79.92
2023-01-13T09:09:03.441Z,79.96
2023-01-13T09:11:37.923Z,80.34
2023-01-13T09:13:50.623Z,80.50
2023-01-13T09:16:03.268Z,81.10
2023-01-13T09:18:15.835Z,81.11
2023-01-13T09:20:28.378Z,81.37
2023-01-13T09:22:41.389Z,81.84
2023-01-13T09:24:55.122Z,81.52
2023-01-13T09:27:09.682Z,81.92
2023-01-13T09:29:22.604Z,82.11
2023-01-13T09:31:35.309Z,82.06
2023-01-13T09:34:06.798Z,82.19
2023-01-13T09:36:19.735Z,81.61
2023-01-13T09:38:32.271Z,81.91
2023-01-13T09:40:48.997Z,81.87
2023-01-13T09:43:33.226Z,81.44
2023-01-13T09:45:59.744Z,81.33
2023-01-13T09:48:25.245Z,81.17
2023-01-13T09:51:00.653Z,80.85
2023-01-13T09:53:23.003Z,80.77
2023-01-13T09:55:36.893Z,80.96
2023-01-13T09:57:49.376Z,80.85
2023-01-13T10:00:02.518Z,80.52
2023-01-13T10:02:54.570Z,80.48
2023-01-13T10:05:28.340Z,80.34
2023-01-13T10:07:49.627Z,80.28
2023-01-13T10:10:03.875Z,80.12
2023-01-13T10:12:43.630Z,80.12
2023-01-13T10:14:56.285Z,79.81
2023-01-13T10:17:27.572Z,79.66
2023-01-13T10:20:06.161Z,79.56
2023-01-13T10:22:25.062Z,79.53
2023-01-13T10:25:08.213Z,79.37
2023-01-13T10:27:28.912Z,79.03
2023-01-13T10:29:41.482Z,79.04
2023-01-13T10:31:55.487Z,78.46
2023-01-13T10:34:08.010Z,78.05
2023-01-13T10:36:21.546Z,77.96
2023-01-13T10:38:43.495Z,77.79
2023-01-13T10:41:02.353Z,77.70
2023-01-13T10:43:15.007Z,77.29
2023-01-13T10:45:27.504Z,77.21
2023-01-13T10:47:40.444Z,76.70
2023-01-13T10:50:11.130Z,76.09
2023-01-13T10:52:27.756Z,75.83
2023-01-13T10:54:51.666Z,74.88
2023-01-13T10:57:15.616Z,75.06
2023-01-13T10:59:28.185Z,75.04
2023-01-13T11:01:55.951Z,74.59
2023-01-13T11:04:28.933Z,74.54
2023-01-13T11:06:45.923Z,74.00
2023-01-13T11:08:58.713Z,73.86
2023-01-13T11:11:40.667Z,73.97
2023-01-13T11:14:17.932Z,73.90
2023-01-13T11:16:30.784Z,73.83
2023-01-13T11:19:11.895Z,73.79
2023-01-13T11:21:30.355Z,73.61
2023-01-13T11:23:49.998Z,73.65
2023-01-13T11:26:10.798Z,73.70
2023-01-13T11:28:35.304Z,73.67
2023-01-13T11:30:56.615Z,73.36
2023-01-13T11:33:15.232Z,73.24
2023-01-13T11:35:31.471Z,72.90
2023-01-13T11:37:51.288Z,72.79
2023-01-13T11:40:13.504Z,72.30
2023-01-13T11:42:41.311Z,71.93
2023-01-13T11:44:59.588Z,71.86
2023-01-13T11:47:13.675Z,71.82
2023-01-13T11:49:30.765Z,71.77
2023-01-13T11:51:54.908Z,71.71
2023-01-13T11:54:40.987Z,71.77
2023-01-13T11:57:19.521Z,72.29
2023-01-13T12:00:14.561Z,72.36
2023-01-13T12:03:12.487Z,72.44
2023-01-13T12:05:44.564Z,72.50
2023-01-13T12:08:45.723Z,72.72
2023-01-13T12:11:25.443Z,72.92
2023-01-13T12:14:19.848Z,72.94
2023-01-13T12:16:32.891Z,73.22
2023-01-13T12:19:07.432Z,73.25
2023-01-13T12:21:28.105Z,73.24
2023-01-13T12:23:50.184Z,73.23
2023-01-13T12:26:12.235Z,73.03
2023-01-13T12:28:41.460Z,72.76
2023-01-13T12:31:00.788Z,72.61
2023-01-13T12:33:59.087Z,72.65
2023-01-13T12:36:34.269Z,72.37
2023-01-13T12:38:57.855Z,72.62
2023-01-13T12:41:24.664Z,72.33
2023-01-13T12:43:57.048Z,72.06
2023-01-13T12:46:18.508Z,71.93
2023-01-13T12:48:59.223Z,71.25
2023-01-13T12:51:34.270Z,70.94
2023-01-13T12:53:46.824Z,70.63
2023-01-13T12:56:27.263Z,70.91
2023-01-13T12:58:39.849Z,70.47
2023-01-13T13:01:00.872Z,70.28
2023-01-13T13:03:18.554Z,70.47
2023-01-13T13:06:01.323Z,70.53
2023-01-13T13:08:40.936Z,70.45
2023-01-13T13:11:55.238Z,70.53
2023-01-13T13:14:13.785Z,70.55
2023-01-13T13:16:26.460Z,70.78
2023-01-13T13:18:39.089Z,70.81
2023-01-13T13:21:08.954Z,70.73
2023-01-13T13:23:48.293Z,70.85
2023-01-13T13:26:16.323Z,70.93
2023-01-13T13:28:36.893Z,71.07
2023-01-13T13:31:01.849Z,71.02
2023-01-13T13:33:46.897Z,71.13
2023-01-13T13:35:59.363Z,71.23
2023-01-13T13:38:43.086Z,71.48
2023-01-13T13:41:14.603Z,71.71
2023-01-13T13:43:47.023Z,72.03
2023-01-13T13:46:18.499Z,72.05
2023-01-13T13:48:31.201Z,71.98
2023-01-13T13:50:48.197Z,72.08
2023-01-13T13:53:08.461Z,72.20
2023-01-13T13:55:24.775Z,72.30
2023-01-13T13:57:40.035Z,72.37
2023-01-13T13:59:58.415Z,72.49
2023-01-13T14:02:19.909Z,72.65
2023-01-13T14:04:35.500Z,72.99
2023-01-13T14:07:06.513Z,73.44
2023-01-13T14:09:20.606Z,74.32
2023-01-13T14:11:33.869Z,75.20
2023-01-13T14:13:46.445Z,77.07
2023-01-13T14:16:09.776Z,77.96
2023-01-13T14:18:23.149Z,80.15
2023-01-13T14:20:36.911Z,81.32
2023-01-13T14:22:52.290Z,81.57
2023-01-13T14:25:30.452Z,82.59
2023-01-13T14:27:43.290Z,84.03
2023-01-13T14:29:59.161Z,84.59
2023-01-13T14:32:18.473Z,84.96
2023-01-13T14:34:33.380Z,85.38
2023-01-13T14:36:50.924Z,86.74
2023-01-13T14:39:03.444Z,87.18
2023-01-13T14:41:29.107Z,88.36
2023-01-13T14:43:46.557Z,88.81
2023-01-13T14:46:02.451Z,89.72
2023-01-13T14:48:15.054Z,89.92
2023-01-13T14:50:32.653Z,90.52
2023-01-13T14:52:50.825Z,91.40
2023-01-13T14:55:06.825Z,91.33
2023-01-13T14:57:33.031Z,91.26
2023-01-13T15:00:13.291Z,91.29
2023-01-13T15:02:33.087Z,91.76
2023-01-13T15:04:46.599Z,91.97
2023-01-13T15:07:00.201Z,92.33
2023-01-13T15:09:13.652Z,93.34
2023-01-13T15:11:28.860Z,93.17
2023-01-13T15:13:53.053Z,93.79
2023-01-13T15:16:21.924Z,93.98
2023-01-13T15:18:39.898Z,94.28
2023-01-13T15:20:53.115Z,95.04
2023-01-13T15:23:05.773Z,96.07
2023-01-13T15:25:19.013Z,96.19
2023-01-13T15:27:31.565Z,96.45
2023-01-13T15:29:44.231Z,96.69
2023-01-13T15:31:56.826Z,96.84
2023-01-13T15:34:09.375Z,96.81
2023-01-13T15:36:31.132Z,97.27
2023-01-13T15:38:43.873Z,97.09
2023-01-13T15:40:56.497Z,97.64
2023-01-13T15:43:36.947Z,97.39
2023-01-13T15:46:25.041Z,97.27
2023-01-13T15:48:37.692Z,96.95
2023-01-13T15:50:51.109Z,96.79
2023-01-13T15:53:04.719Z,96.33
2023-01-13T15:55:17.351Z,95.87
2023-01-13T15:57:35.612Z,95.58
2023-01-13T15:59:48.731Z,95.51
2023-01-13T16:02:01.260Z,95.39
2023-01-13T16:04:13.808Z,95.35
2023-01-13T16:06:32.555Z,95.37
2023-01-13T16:08:45.171Z,94.98
2023-01-13T16:10:57.711Z,94.99
2023-01-13T16:13:11.346Z,94.88
2023-01-13T16:15:25.910Z,95.20
2023-01-13T16:17:38.667Z,95.15
2023-01-13T16:19:51.875Z,95.15
2023-01-13T16:22:04.441Z,95.06
2023-01-13T16:24:16.970Z,95.29
2023-01-13T16:26:30.045Z,95.20
2023-01-13T16:28:42.544Z,95.06
2023-01-13T16:30:55.122Z,94.62
2023-01-13T16:33:07.664Z,94.47
2023-01-13T16:35:20.678Z,94.62
2023-01-13T16:37:33.290Z,94.88
2023-01-13T16:39:45.931Z,95.07
2023-01-13T16:41:58.506Z,95.07
2023-01-13T16:44:11.091Z,95.14
2023-01-13T16:46:26.220Z,95.26
2023-01-13T16:48:38.762Z,95.18
2023-01-13T16:50:51.256Z,95.01
2023-01-13T16:53:04.421Z,94.74
2023-01-13T16:55:17.034Z,94.72
2023-01-13T16:57:29.586Z,94.47
2023-01-13T16:59:42.195Z,94.29
2023-01-13T17:01:54.859Z,94.13
2023-01-13T17:04:14.751Z,94.07
2023-01-13T17:06:38.357Z,94.37
2023-01-13T17:08:52.905Z,94.56
2023-01-13T17:11:05.461Z,94.56
2023-01-13T17:13:19.107Z,94.82
2023-01-13T17:15:34.080Z,94.81
2023-01-13T17:17:51.787Z,94.88
2023-01-13T17:20:05.333Z,95.22
2023-01-13T17:22:19.154Z,95.21
2023-01-13T17:24:35.034Z,95.35
2023-01-13T17:26:49.898Z,95.46
2023-01-13T17:29:05.967Z,95.58
2023-01-13T17:31:18.553Z,95.57
2023-01-13T17:33:37.036Z,95.80
2023-01-13T17:35:49.624Z,95.58
2023-01-13T17:38:02.962Z,95.69
2023-01-13T17:40:15.848Z,95.89
2023-01-13T17:42:29.598Z,95.74
2023-01-13T17:44:42.419Z,96.06
2023-01-13T17:46:54.970Z,96.16
2023-01-13T17:49:10.685Z,96.19
2023-01-13T17:51:25.179Z,96.13
2023-01-13T17:53:40.767Z,96.27
2023-01-13T17:55:55.388Z,96.38
2023-01-13T17:58:07.883Z,96.49
2023-01-13T18:00:20.694Z,96.49
2023-01-13T18:02:33.412Z,96.47
2023-01-13T18:04:46.014Z,96.48
2023-01-13T18:06:58.549Z,96.58
2023-01-13T18:09:11.495Z,96.49
2023-01-13T18:11:24.188Z,96.47
2023-01-13T18:13:38.417Z,96.41
2023-01-13T18:16:00.739Z,96.21
2023-01-13T18:18:13.440Z,96.06
2023-01-13T18:20:44.779Z,95.70
2023-01-13T18:23:16.246Z,95.48
2023-01-13T18:25:47.255Z,95.38
2023-01-13T18:28:03.998Z,95.13
2023-01-13T18:30:16.637Z,95.01
2023-01-13T18:32:33.140Z,94.85
2023-01-13T18:34:46.515Z,94.60
2023-01-13T18:36:59.336Z,94.42
2023-01-13T18:39:12.008Z,94.15
2023-01-13T18:41:43.439Z,93.88
2023-01-13T18:43:55.963Z,93.88
2023-01-13T18:46:08.533Z,93.74
2023-01-13T18:48:21.102Z,93.75
2023-01-13T18:50:34.777Z,93.68
2023-01-13T18:52:47.571Z,93.70
2023-01-13T18:55:00.107Z,93.86
2023-01-13T18:57:13.751Z,93.92
2023-01-13T18:59:26.481Z,93.94
2023-01-13T19:01:39.160Z,94.04
2023-01-13T19:03:56.436Z,94.04
2023-01-13T19:06:11.686Z,94.17
2023-01-13T19:08:24.261Z,94.39
2023-01-13T19:10:39.705Z,94.49
2023-01-13T19:12:52.265Z,94.54
2023-01-13T19:15:05.174Z,94.54
2023-01-13T19:17:17.719Z,94.51
2023-01-13T19:19:31.462Z,94.53
2023-01-13T19:21:44.009Z,94.44
2023-01-13T19:23:56.930Z,94.52
2023-01-13T19:26:11.150Z,94.45
2023-01-13T19:28:23.731Z,94.34
2023-01-13T19:30:36.250Z,94.28
2023-01-13T19:32:48.810Z,94.27
2023-01-13T19:35:01.393Z,94.17
2023-01-13T19:37:14.096Z,94.05
2023-01-13T19:39:26.643Z,94.19
2023-01-13T19:41:57.499Z,94.17
2023-01-13T19:44:31.569Z,94.10
2023-01-13T19:46:44.128Z,94.23
2023-01-13T19:48:56.685Z,94.44
2023-01-13T19:51:10.083Z,94.64
2023-01-13T19:53:22.636Z,94.73
2023-01-13T19:55:35.374Z,94.78
2023-01-13T19:57:48.085Z,95.09
2023-01-13T20:00:00.857Z,95.31
2023-01-13T20:02:27.781Z,95.49
2023-01-13T20:04:44.629Z,95.80
2023-01-13T20:06:57.390Z,96.08
2023-01-13T20:09:09.971Z,96.35
2023-01-13T20:11:22.566Z,96.54
2023-01-13T20:13:35.188Z,96.65
2023-01-13T20:15:47.965Z,96.73
2023-01-13T20:18:00.758Z,96.77
2023-01-13T20:20:15.771Z,96.81
2023-01-13T20:22:28.427Z,96.94
2023-01-13T20:24:41.179Z,96.79
2023-01-13T20:26:54.550Z,97.12
2023-01-13T20:29:07.236Z,97.09
2023-01-13T20:31:20.073Z,96.91
2023-01-13T20:33:32.703Z,96.93
2023-01-13T20:35:45.357Z,97.08
2023-01-13T20:37:58.061Z,97.15
2023-01-13T20:40:14.932Z,96.97
2023-01-13T20:42:45.073Z,96.80
2023-01-13T20:44:59.945Z,96.59
2023-01-13T20:47:14.566Z,96.58
2023-01-13T20:49:27.976Z,96.30
2023-01-13T20:51:41.550Z,96.27
2023-01-13T20:53:56.723Z,96.11
2023-01-13T20:56:09.741Z,96.20
2023-01-13T20:58:22.459Z,96.13
2023-01-13T21:00:35.158Z,95.82
2023-01-13T21:02:47.760Z,95.70
2023-01-13T21:05:00.335Z,95.33
2023-01-13T21:07:13.194Z,94.86
2023-01-13T21:09:27.205Z,94.46
2023-01-13T21:11:58.137Z,94.22
2023-01-13T21:14:40.781Z,93.54
2023-01-13T21:16:53.309Z,93.17
2023-01-13T21:19:10.560Z,92.39
2023-01-13T21:21:23.177Z,92.14
2023-01-13T21:23:35.782Z,91.68
2023-01-13T21:25:48.335Z,91.25
2023-01-13T21:28:08.218Z,91.02
2023-01-13T21:30:21.012Z,90.65
2023-01-13T21:32:33.507Z,90.20
2023-01-13T21:34:46.519Z,89.96
2023-01-13T21:36:59.487Z,89.54
2023-01-13T21:39:14.126Z,89.22
2023-01-13T21:41:45.159Z,88.97
2023-01-13T21:44:16.639Z,88.87
2023-01-13T21:46:47.739Z,88.49
2023-01-13T21:49:00.374Z,88.33
2023-01-13T21:51:13.035Z,88.34
2023-01-13T21:53:25.604Z,88.03
2023-01-13T21:55:38.165Z,87.88
2023-01-13T21:58:11.653Z,87.60
2023-01-13T22:00:26.786Z,87.66
2023-01-13T22:02:39.611Z,87.59
2023-01-13T22:04:52.466Z,87.54
2023-01-13T22:07:06.537Z,87.45
2023-01-13T22:09:19.078Z,87.55
2023-01-13T22:11:32.388Z,87.47
2023-01-13T22:14:03.602Z,87.35
2023-01-13T22:16:16.233Z,87.41
2023-01-13T22:18:28.880Z,87.29
2023-01-13T22:20:42.036Z,87.30
2023-01-13T22:22:54.549Z,87.42
2023-01-13T22:25:10.951Z,87.07
2023-01-13T22:27:26.106Z,86.97
2023-01-13T22:29:38.701Z,86.96
2023-01-13T22:31:51.232Z,86.93
2023-01-13T22:34:04.014Z,86.67
2023-01-13T22:36:16.616Z,86.30
2023-01-13T22:38:29.198Z,86.40
2023-01-13T22:40:41.761Z,86.24
2023-01-13T22:42:54.382Z,86.20
2023-01-13T22:45:09.943Z,86.23
2023-01-13T22:47:22.490Z,86.23
2023-01-13T22:49:35.276Z,86.12
2023-01-13T22:51:47.823Z,86.18
2023-01-13T22:54:00.361Z,86.29
2023-01-13T22:56:18.564Z,86.20
2023-01-13T22:58:31.598Z,86.24
2023-01-13T23:00:44.132Z,86.15
2023-01-13T23:02:56.747Z,86.37
2023-01-13T23:05:09.588Z,86.40
2023-01-13T23:07:22.186Z,86.43
2023-01-13T23:09:34.743Z,86.35
2023-01-13T23:11:47.990Z,86.44
2023-01-13T23:14:04.277Z,86.54
2023-01-13T23:16:21.062Z,86.60
2023-01-13T23:18:34.409Z,86.63
2023-01-13T23:20:46.945Z,86.63
2023-01-13T23:22:59.683Z,86.77
2023-01-13T23:25:12.258Z,86.80
2023-01-13T23:27:24.813Z,86.78
2023-01-13T23:29:37.763Z,86.93
2023-01-13T23:31:50.370Z,86.83
2023-01-13T23:34:02.978Z,87.03
2023-01-13T23:36:21.471Z,87.03
2023-01-13T23:38:34.127Z,87.06
2023-01-13T23:40:46.661Z,87.04
2023-01-13T23:42:59.260Z,87.01
2023-01-13T23:45:11.872Z,87.14
2023-01-13T23:47:24.470Z,87.34
2023-01-13T23:49:37.025Z,87.24
2023-01-13T23:51:51.113Z,87.31
2023-01-13T23:54:03.752Z,87.36
2023-01-13T23:56:19.166Z,87.38
2023-01-13T23:58:33.628Z,87.33
